createdAt,value
2018-09-11T00:02:11.700Z,5.00
2018-09-11T00:04:39.900Z,5.00
2018-09-11T00:07:08.953Z,5.43
2018-09-11T00:09:36.996Z,5.50
2018-09-11T00:12:05.105Z,4.57
2018-09-11T00:14:33.181Z,4.97
2018-09-11T00:17:01.364Z,4.80
2018-09-11T00:19:29.636Z,5.77
2018-09-11T00:21:57.696Z,5.03
2018-09-11T00:24:25.744Z,5.60
2018-09-11T00:26:53.809Z,5.30
2018-09-11T00:29:21.978Z,4.70
2018-09-11T00:31:50.142Z,5.00
2018-09-11T00:34:18.674Z,5.30
2018-09-11T00:36:47.084Z,5.73
2018-09-11T00:39:15.157Z,5.43
2018-09-11T00:41:43.377Z,5.57
2018-09-11T00:44:11.521Z,5.20
2018-09-11T00:46:39.589Z,6.03
2018-09-11T00:49:08.068Z,5.40
2018-09-11T00:51:36.169Z,5.30
2018-09-11T00:54:04.710Z,6.50
2018-09-11T00:56:33.109Z,5.53
2018-09-11T00:59:01.169Z,5.40
2018-09-11T01:01:29.949Z,5.60
2018-09-11T01:03:58.002Z,6.10
2018-09-11T01:06:26.185Z,5.60
2018-09-11T01:08:54.233Z,5.50
2018-09-11T01:11:22.309Z,5.90
2018-09-11T01:13:50.825Z,5.20
2018-09-11T01:16:18.868Z,5.50
2018-09-11T01:18:47.113Z,5.60
2018-09-11T01:21:15.346Z,5.50
2018-09-11T01:23:43.476Z,5.60
2018-09-11T01:26:11.540Z,6.00
2018-09-11T01:28:39.600Z,5.10
2018-09-11T01:31:07.681Z,5.90
2018-09-11T01:33:35.773Z,5.70
2018-09-11T01:36:03.862Z,5.13
2018-09-11T01:38:31.988Z,5.53
2018-09-11T01:41:00.101Z,5.33
2018-09-11T01:43:28.593Z,5.10
2018-09-11T01:45:56.766Z,5.83
2018-09-11T01:48:24.893Z,5.63
2018-09-11T01:50:53.000Z,5.80
2018-09-11T01:53:21.163Z,5.63
2018-09-11T01:55:49.245Z,4.90
2018-09-11T01:58:17.356Z,5.47
2018-09-11T02:00:45.505Z,5.30
2018-09-11T02:03:13.561Z,5.90
2018-09-11T02:05:41.701Z,5.97
2018-09-11T02:08:09.808Z,5.40
2018-09-11T02:10:38.018Z,5.50
2018-09-11T02:13:06.158Z,5.30
2018-09-11T02:15:34.356Z,5.70
2018-09-11T02:18:02.439Z,4.77
2018-09-11T02:20:30.540Z,6.00
2018-09-11T02:22:58.665Z,5.67
2018-09-11T02:25:26.871Z,6.10
2018-09-11T02:27:55.060Z,5.70
2018-09-11T02:30:23.115Z,5.83
2018-09-11T02:32:51.205Z,5.77
2018-09-11T02:35:19.280Z,5.67
2018-09-11T02:37:47.663Z,5.03
2018-09-11T02:40:16.040Z,5.90
2018-09-11T02:42:44.105Z,6.07
2018-09-11T02:45:12.309Z,5.30
2018-09-11T02:47:40.373Z,5.30
2018-09-11T02:50:09.269Z,5.57
2018-09-11T02:52:37.624Z,6.00
2018-09-11T02:55:06.666Z,5.70
2018-09-11T02:57:34.793Z,5.70
2018-09-11T03:00:02.889Z,6.07
2018-09-11T03:02:31.053Z,5.40
2018-09-11T03:04:59.181Z,6.27
2018-09-11T03:07:27.258Z,5.47
2018-09-11T03:09:55.324Z,5.90
2018-09-11T03:12:23.441Z,5.80
2018-09-11T03:14:51.543Z,5.53
2018-09-11T03:17:19.795Z,6.17
2018-09-11T03:19:47.856Z,6.13
2018-09-11T03:22:16.046Z,5.70
2018-09-11T03:24:44.120Z,5.83
2018-09-11T03:27:12.184Z,5.70
2018-09-11T03:29:40.327Z,6.37
2018-09-11T03:32:08.560Z,5.17
2018-09-11T03:34:36.611Z,5.50
2018-09-11T03:37:05.092Z,6.20
2018-09-11T03:39:33.284Z,6.17
2018-09-11T03:42:01.746Z,6.00
2018-09-11T03:44:29.877Z,5.97
2018-09-11T03:46:58.043Z,7.40
2018-09-11T03:49:26.137Z,6.13
2018-09-11T03:51:54.275Z,6.70
2018-09-11T03:54:22.597Z,6.03
2018-09-11T03:56:50.842Z,6.10
2018-09-11T03:59:19.028Z,6.40
2018-09-11T04:01:47.231Z,7.17
2018-09-11T04:04:15.367Z,5.97
2018-09-11T04:06:43.446Z,6.30
2018-09-11T04:09:12.838Z,7.50
2018-09-11T04:11:41.925Z,6.47
2018-09-11T04:14:10.285Z,6.83
2018-09-11T04:16:38.404Z,6.60
2018-09-11T04:19:06.743Z,6.77
2018-09-11T04:21:34.863Z,6.60
2018-09-11T04:24:03.090Z,6.93
2018-09-11T04:26:31.348Z,7.30
2018-09-11T04:28:59.484Z,6.27
2018-09-11T04:31:27.880Z,6.90
2018-09-11T04:33:56.000Z,6.50
2018-09-11T04:36:24.182Z,6.30
2018-09-11T04:38:52.361Z,6.63
2018-09-11T04:41:20.780Z,6.57
2018-09-11T04:43:48.961Z,7.33
2018-09-11T04:46:17.029Z,6.40
2018-09-11T04:48:45.900Z,6.60
2018-09-11T04:51:14.050Z,8.00
2018-09-11T04:53:42.108Z,7.63
2018-09-11T04:56:10.302Z,8.53
2018-09-11T04:58:38.520Z,7.40
2018-09-11T05:01:06.720Z,7.43
2018-09-11T05:03:35.036Z,8.10
2018-09-11T05:06:03.090Z,8.00
2018-09-11T05:08:31.168Z,7.20
2018-09-11T05:10:59.392Z,7.17
2018-09-11T05:13:27.555Z,6.90
2018-09-11T05:15:55.786Z,7.43
2018-09-11T05:18:23.880Z,6.80
2018-09-11T05:20:51.932Z,7.20
2018-09-11T05:23:20.091Z,7.80
2018-09-11T05:25:48.160Z,7.57
2018-09-11T05:28:16.240Z,7.37
2018-09-11T05:30:44.377Z,7.97
2018-09-11T05:33:12.439Z,7.87
2018-09-11T05:35:40.604Z,7.63
2018-09-11T05:38:08.874Z,7.90
2018-09-11T05:40:36.944Z,8.17
2018-09-11T05:43:05.302Z,8.23
2018-09-11T05:45:33.566Z,8.00
2018-09-11T05:48:01.937Z,8.53
2018-09-11T05:50:30.067Z,8.70
2018-09-11T05:52:58.380Z,8.10
2018-09-11T05:55:26.461Z,8.70
2018-09-11T05:57:54.516Z,9.10
2018-09-11T06:00:22.779Z,9.53
2018-09-11T06:02:51.071Z,7.77
2018-09-11T06:05:19.236Z,8.73
2018-09-11T06:07:47.371Z,8.80
2018-09-11T06:10:15.485Z,8.07
2018-09-11T06:12:43.548Z,9.40
2018-09-11T06:15:11.905Z,8.53
2018-09-11T06:17:39.979Z,8.27
2018-09-11T06:20:08.065Z,8.10
2018-09-11T06:22:36.134Z,7.67
2018-09-11T06:25:04.256Z,7.77
2018-09-11T06:27:32.368Z,7.23
2018-09-11T06:30:00.575Z,7.50
2018-09-11T06:32:28.732Z,7.43
2018-09-11T06:34:56.912Z,7.17
2018-09-11T06:37:25.021Z,7.90
2018-09-11T06:39:53.173Z,6.97
2018-09-11T06:42:21.240Z,6.60
2018-09-11T06:44:49.351Z,6.70
2018-09-11T06:47:17.667Z,7.40
2018-09-11T06:49:45.741Z,7.10
2018-09-11T06:52:13.816Z,6.93
2018-09-11T06:54:41.967Z,6.73
2018-09-11T06:57:10.216Z,7.00
2018-09-11T06:59:38.291Z,6.80
2018-09-11T07:02:06.742Z,7.33
2018-09-11T07:04:34.982Z,6.30
2018-09-11T07:07:03.408Z,6.70
2018-09-11T07:09:31.565Z,5.83
2018-09-11T07:11:59.689Z,6.43
2018-09-11T07:14:27.765Z,5.17
2018-09-11T07:16:55.888Z,5.70
2018-09-11T07:19:24.011Z,5.23
2018-09-11T07:21:52.497Z,5.00
2018-09-11T07:24:21.272Z,5.67
2018-09-11T07:26:49.662Z,5.43
2018-09-11T07:29:17.778Z,5.67
2018-09-11T07:31:45.994Z,5.20
2018-09-11T07:34:14.192Z,4.10
2018-09-11T07:36:42.452Z,5.17
2018-09-11T07:39:10.553Z,5.00
2018-09-11T07:41:38.616Z,4.77
2018-09-11T07:44:06.752Z,4.40
2018-09-11T07:46:35.182Z,4.43
2018-09-11T07:49:03.301Z,4.40
2018-09-11T07:51:31.393Z,4.33
2018-09-11T07:53:59.440Z,4.30
2018-09-11T07:56:27.520Z,4.00
2018-09-11T07:58:55.630Z,6.47
2018-09-11T08:01:23.702Z,6.07
2018-09-11T08:03:51.797Z,4.00
2018-09-11T08:06:19.932Z,4.10
2018-09-11T08:08:48.161Z,4.40
2018-09-11T08:11:16.249Z,3.93
2018-09-11T08:13:44.853Z,4.30
2018-09-11T08:16:12.928Z,4.63
2018-09-11T08:18:41.181Z,4.40
2018-09-11T08:21:09.345Z,3.77
2018-09-11T08:23:37.405Z,3.77
2018-09-11T08:26:06.005Z,3.60
2018-09-11T08:28:34.137Z,3.60
2018-09-11T08:31:02.217Z,4.10
2018-09-11T08:33:30.338Z,3.90
2018-09-11T08:35:58.421Z,4.07
2018-09-11T08:38:26.517Z,3.90
2018-09-11T08:40:54.629Z,3.53
2018-09-11T08:43:23.000Z,3.77
2018-09-11T08:45:51.085Z,3.80
2018-09-11T08:48:19.216Z,3.57
2018-09-11T08:50:47.292Z,3.23
2018-09-11T08:53:15.685Z,3.50
2018-09-11T08:55:43.766Z,2.93
2018-09-11T08:58:11.841Z,3.50
2018-09-11T09:00:39.893Z,3.60
2018-09-11T09:03:08.037Z,3.60
2018-09-11T09:05:36.246Z,3.70
2018-09-11T09:08:04.347Z,3.90
2018-09-11T09:10:32.493Z,3.80
2018-09-11T09:13:00.595Z,4.03
2018-09-11T09:15:28.667Z,5.87
2018-09-11T09:17:56.716Z,4.33
2018-09-11T09:20:24.981Z,4.07
2018-09-11T09:22:53.461Z,4.63
2018-09-11T09:25:21.696Z,3.57
2018-09-11T09:27:49.932Z,3.80
2018-09-11T09:30:18.029Z,3.77
2018-09-11T09:32:46.076Z,3.83
2018-09-11T09:35:14.233Z,3.80
2018-09-11T09:37:42.307Z,4.00
2018-09-11T09:40:10.792Z,3.97
2018-09-11T09:42:38.972Z,4.07
2018-09-11T09:45:07.697Z,4.00
2018-09-11T09:47:35.776Z,3.63
2018-09-11T09:50:03.920Z,3.77
2018-09-11T09:52:32.013Z,4.00
2018-09-11T09:55:00.112Z,4.40
2018-09-11T09:57:28.148Z,4.70
2018-09-11T09:59:56.229Z,4.77
2018-09-11T10:02:25.340Z,4.00
2018-09-11T10:04:54.420Z,3.80
2018-09-11T10:07:23.386Z,4.07
2018-09-11T10:09:52.161Z,4.10
2018-09-11T10:12:20.253Z,4.67
2018-09-11T10:14:48.316Z,4.43
2018-09-11T10:17:16.395Z,3.87
2018-09-11T10:19:44.482Z,3.97
2018-09-11T10:22:12.600Z,4.00
2018-09-11T10:24:40.697Z,4.20
2018-09-11T10:27:09.417Z,4.73
2018-09-11T10:29:37.590Z,4.57
2018-09-11T10:32:05.849Z,4.07
2018-09-11T10:34:34.261Z,4.13
2018-09-11T10:37:02.432Z,4.30
2018-09-11T10:39:30.558Z,4.40
2018-09-11T10:41:58.911Z,3.60
2018-09-11T10:44:26.998Z,4.20
2018-09-11T10:46:55.133Z,4.50
2018-09-11T10:49:23.245Z,4.30
2018-09-11T10:51:51.339Z,4.20
2018-09-11T10:54:19.646Z,4.67
2018-09-11T10:56:47.705Z,4.57
2018-09-11T10:59:15.982Z,4.27
2018-09-11T11:01:44.066Z,4.60
2018-09-11T11:04:12.372Z,4.57
2018-09-11T11:06:40.600Z,4.70
2018-09-11T11:09:09.201Z,3.97
2018-09-11T11:11:37.308Z,4.87
2018-09-11T11:14:05.581Z,4.60
2018-09-11T11:16:33.675Z,4.07
2018-09-11T11:19:01.838Z,4.00
2018-09-11T11:21:29.886Z,4.57
2018-09-11T11:23:58.072Z,4.73
2018-09-11T11:26:26.213Z,4.17
2018-09-11T11:28:54.298Z,4.80
2018-09-11T11:31:22.376Z,4.60
2018-09-11T11:33:50.457Z,4.67
2018-09-11T11:36:18.569Z,4.63
2018-09-11T11:38:46.829Z,4.47
2018-09-11T11:41:14.872Z,4.03
2018-09-11T11:43:42.965Z,4.30
2018-09-11T11:46:11.220Z,3.80
2018-09-11T11:48:39.434Z,5.37
2018-09-11T11:51:07.601Z,3.87
2018-09-11T11:53:35.713Z,4.00
2018-09-11T11:56:03.821Z,3.93
2018-09-11T11:58:31.917Z,4.00
2018-09-11T12:00:59.993Z,4.47
2018-09-11T12:03:28.085Z,4.33
2018-09-11T12:05:56.181Z,4.43
2018-09-11T12:08:24.297Z,4.40
2018-09-11T12:10:52.437Z,4.47
2018-09-11T12:13:20.528Z,3.60
2018-09-11T12:15:48.611Z,3.70
2018-09-11T12:18:16.668Z,5.67
2018-09-11T12:20:44.912Z,3.80
2018-09-11T12:23:13.224Z,3.83
2018-09-11T12:25:41.598Z,3.70
2018-09-11T12:28:09.685Z,3.70
2018-09-11T12:30:37.896Z,4.27
2018-09-11T12:33:06.299Z,4.03
2018-09-11T12:35:34.421Z,4.10
2018-09-11T12:38:02.592Z,4.30
2018-09-11T12:40:30.664Z,3.83
2018-09-11T12:42:58.824Z,4.07
2018-09-11T12:45:26.892Z,3.50
2018-09-11T12:47:55.251Z,4.30
2018-09-11T12:50:23.733Z,3.90
2018-09-11T12:52:52.782Z,3.93
2018-09-11T12:55:20.877Z,3.90
2018-09-11T12:57:48.990Z,3.70
2018-09-11T13:00:17.089Z,3.97
2018-09-11T13:02:45.176Z,3.60
2018-09-11T13:05:13.379Z,3.40
2018-09-11T13:07:41.801Z,3.27
2018-09-11T13:10:09.888Z,3.23
2018-09-11T13:12:37.964Z,4.00
2018-09-11T13:15:06.221Z,2.93
2018-09-11T13:17:34.660Z,3.90
2018-09-11T13:20:02.989Z,3.90
2018-09-11T13:22:31.091Z,3.00
2018-09-11T13:24:59.165Z,3.17
2018-09-11T13:27:27.279Z,3.07
2018-09-11T13:29:55.432Z,3.30
2018-09-11T13:32:23.515Z,2.97
2018-09-11T13:34:51.571Z,3.50
2018-09-11T13:37:19.673Z,3.20
2018-09-11T13:39:47.829Z,3.17
2018-09-11T13:42:15.862Z,3.50
2018-09-11T13:44:43.951Z,2.97
2018-09-11T13:47:12.460Z,2.83
2018-09-11T13:49:40.652Z,3.00
2018-09-11T13:52:08.735Z,3.23
2018-09-11T13:54:37.074Z,3.27
2018-09-11T13:57:05.698Z,3.20
2018-09-11T13:59:33.973Z,4.40
2018-09-11T14:02:02.128Z,3.70
2018-09-11T14:04:30.193Z,3.63
2018-09-11T14:06:58.281Z,3.40
2018-09-11T14:09:26.420Z,3.33
2018-09-11T14:11:54.620Z,3.17
2018-09-11T14:14:22.693Z,3.17
2018-09-11T14:16:50.759Z,3.20
2018-09-11T14:19:18.926Z,3.10
2018-09-11T14:21:47.052Z,3.80
2018-09-11T14:24:15.283Z,3.10
2018-09-11T14:26:43.394Z,3.10
2018-09-11T14:29:11.633Z,3.17
2018-09-11T14:31:40.325Z,2.90
2018-09-11T14:34:08.604Z,3.10
2018-09-11T14:36:36.773Z,3.20
2018-09-11T14:39:06.406Z,3.40
2018-09-11T14:41:34.569Z,3.23
2018-09-11T14:44:02.756Z,3.00
2018-09-11T14:46:30.914Z,3.70
2018-09-11T14:48:59.155Z,2.70
2018-09-11T14:51:27.249Z,3.00
2018-09-11T14:53:55.900Z,3.30
2018-09-11T14:56:23.993Z,3.10
2018-09-11T14:58:52.191Z,3.47
2018-09-11T15:01:20.361Z,2.90
2018-09-11T15:03:48.442Z,2.80
2018-09-11T15:06:16.541Z,3.50
2018-09-11T15:08:44.621Z,3.20
2018-09-11T15:11:12.832Z,3.33
2018-09-11T15:13:40.905Z,3.00
2018-09-11T15:16:09.272Z,3.00
2018-09-11T15:18:37.711Z,3.33
2018-09-11T15:21:05.553Z,3.17
2018-09-11T15:23:33.657Z,2.70
2018-09-11T15:26:01.812Z,3.47
2018-09-11T15:28:29.984Z,2.90
2018-09-11T15:30:58.265Z,3.43
2018-09-11T15:33:26.366Z,2.87
2018-09-11T15:35:54.561Z,3.47
2018-09-11T15:38:22.800Z,3.30
2018-09-11T15:40:50.978Z,2.83
2018-09-11T15:43:19.082Z,2.70
2018-09-11T15:45:47.224Z,3.60
2018-09-11T15:48:15.271Z,3.03
2018-09-11T15:50:45.158Z,3.13
2018-09-11T15:53:13.344Z,2.80
2018-09-11T15:55:41.439Z,3.27
2018-09-11T15:58:09.997Z,3.00
2018-09-11T16:00:38.185Z,2.80
2018-09-11T16:03:06.375Z,3.53
2018-09-11T16:05:34.449Z,3.50
2018-09-11T16:08:02.637Z,3.17
2018-09-11T16:10:30.743Z,3.57
2018-09-11T16:12:58.874Z,3.13
2018-09-11T16:15:27.101Z,2.80
2018-09-11T16:17:55.323Z,3.20
2018-09-11T16:20:23.493Z,3.40
2018-09-11T16:22:51.720Z,3.37
2018-09-11T16:25:19.892Z,3.33
2018-09-11T16:27:47.979Z,2.90
2018-09-11T16:30:16.203Z,3.50
2018-09-11T16:32:44.449Z,3.17
2018-09-11T16:35:12.520Z,3.70
2018-09-11T16:37:40.617Z,3.53
2018-09-11T16:40:08.875Z,3.30
2018-09-11T16:42:37.143Z,3.30
2018-09-11T16:45:05.261Z,3.83
2018-09-11T16:47:33.358Z,3.73
2018-09-11T16:50:01.583Z,3.50
2018-09-11T16:52:29.660Z,3.93
2018-09-11T16:54:57.733Z,4.33
2018-09-11T16:57:25.833Z,4.33
2018-09-11T16:59:54.105Z,3.93
2018-09-11T17:02:22.405Z,4.83
2018-09-11T17:04:50.772Z,3.60
2018-09-11T17:07:18.854Z,3.93
2018-09-11T17:09:46.990Z,3.50
2018-09-11T17:12:15.111Z,4.57
2018-09-11T17:14:43.238Z,3.43
2018-09-11T17:17:11.469Z,4.37
2018-09-11T17:19:39.561Z,4.37
2018-09-11T17:22:07.656Z,4.13
2018-09-11T17:24:35.794Z,4.47
2018-09-11T17:27:04.085Z,3.90
2018-09-11T17:29:32.431Z,4.00
2018-09-11T17:32:00.580Z,3.80
2018-09-11T17:34:28.657Z,4.27
2018-09-11T17:36:57.014Z,3.80
2018-09-11T17:39:25.378Z,5.00
2018-09-11T17:41:53.503Z,4.23
2018-09-11T17:44:21.660Z,4.40
2018-09-11T17:46:49.769Z,4.83
2018-09-11T17:49:17.973Z,4.63
2018-09-11T17:51:46.177Z,6.37
2018-09-11T17:54:14.245Z,7.10
2018-09-11T17:56:42.514Z,5.40
2018-09-11T17:59:10.589Z,5.70
2018-09-11T18:01:38.653Z,5.20
2018-09-11T18:04:06.784Z,5.20
2018-09-11T18:06:34.946Z,4.57
2018-09-11T18:09:03.568Z,5.30
2018-09-11T18:11:31.712Z,4.60
2018-09-11T18:13:59.829Z,4.07
2018-09-11T18:16:27.905Z,4.53
2018-09-11T18:18:56.060Z,4.20
2018-09-11T18:21:24.237Z,4.27
2018-09-11T18:23:52.627Z,4.43
2018-09-11T18:26:20.875Z,5.30
2018-09-11T18:28:49.039Z,3.87
2018-09-11T18:31:17.215Z,4.47
2018-09-11T18:33:45.338Z,4.27
2018-09-11T18:36:13.411Z,4.50
2018-09-11T18:38:41.568Z,5.27
2018-09-11T18:41:09.660Z,4.40
2018-09-11T18:43:37.810Z,5.20
2018-09-11T18:46:05.960Z,5.50
2018-09-11T18:48:34.056Z,5.17
2018-09-11T18:51:02.462Z,4.27
2018-09-11T18:53:30.565Z,4.87
2018-09-11T18:55:58.665Z,4.40
2018-09-11T18:58:26.859Z,4.63
2018-09-11T19:00:54.961Z,4.97
2018-09-11T19:03:23.068Z,4.67
2018-09-11T19:05:51.411Z,5.70
2018-09-11T19:08:19.604Z,6.13
2018-09-11T19:10:47.711Z,5.30
2018-09-11T19:13:15.801Z,6.03
2018-09-11T19:15:43.949Z,5.40
2018-09-11T19:18:12.183Z,6.03
2018-09-11T19:20:40.362Z,5.23
2018-09-11T19:23:08.560Z,5.30
2018-09-11T19:25:36.664Z,6.00
2018-09-11T19:28:04.810Z,5.80
2018-09-11T19:30:32.948Z,5.60
2018-09-11T19:33:01.485Z,5.90
2018-09-11T19:35:29.581Z,6.60
2018-09-11T19:37:57.777Z,5.80
2018-09-11T19:40:25.926Z,5.90
2018-09-11T19:42:54.024Z,6.53
2018-09-11T19:45:22.110Z,6.13
2018-09-11T19:47:50.240Z,7.13
2018-09-11T19:50:18.444Z,6.80
2018-09-11T19:52:46.656Z,7.10
2018-09-11T19:55:14.784Z,6.90
2018-09-11T19:57:42.874Z,5.90
2018-09-11T20:00:11.072Z,6.10
2018-09-11T20:02:39.392Z,6.23
2018-09-11T20:05:07.470Z,5.80
2018-09-11T20:07:35.544Z,5.50
2018-09-11T20:10:03.631Z,6.40
2018-09-11T20:12:31.790Z,6.30
2018-09-11T20:14:59.870Z,5.60
2018-09-11T20:17:28.092Z,6.33
2018-09-11T20:19:56.170Z,6.00
2018-09-11T20:22:24.335Z,6.30
2018-09-11T20:24:52.455Z,5.40
2018-09-11T20:27:20.695Z,5.77
2018-09-11T20:29:48.972Z,6.17
2018-09-11T20:32:17.090Z,5.73
2018-09-11T20:34:45.196Z,5.73
2018-09-11T20:37:13.304Z,6.17
2018-09-11T20:39:41.425Z,6.30
2018-09-11T20:42:09.492Z,5.50
2018-09-11T20:44:37.578Z,5.73
2018-09-11T20:47:05.745Z,7.80
2018-09-11T20:49:33.838Z,7.30
2018-09-11T20:52:01.977Z,7.57
2018-09-11T20:54:30.045Z,6.97
2018-09-11T20:56:58.144Z,6.47
2018-09-11T20:59:26.311Z,5.80
2018-09-11T21:01:54.408Z,6.70
2018-09-11T21:04:22.563Z,7.47
2018-09-11T21:06:50.629Z,6.50
2018-09-11T21:09:18.729Z,6.60
2018-09-11T21:11:46.829Z,6.73
2018-09-11T21:14:14.952Z,7.17
2018-09-11T21:16:43.054Z,6.47
2018-09-11T21:19:11.214Z,7.57
2018-09-11T21:21:39.281Z,6.97
2018-09-11T21:24:07.474Z,6.60
2018-09-11T21:26:35.728Z,6.47
2018-09-11T21:29:03.805Z,6.60
2018-09-11T21:31:31.963Z,7.27
2018-09-11T21:34:00.409Z,6.10
2018-09-11T21:36:28.464Z,6.73
2018-09-11T21:38:56.545Z,6.60
2018-09-11T21:41:24.873Z,6.77
2018-09-11T21:43:53.036Z,6.83
2018-09-11T21:46:21.222Z,6.23
2018-09-11T21:48:49.596Z,5.87
2018-09-11T21:51:17.937Z,5.90
2018-09-11T21:53:46.012Z,5.93
2018-09-11T21:56:14.085Z,6.03
2018-09-11T21:58:42.187Z,6.07
2018-09-11T22:01:15.617Z,6.30
2018-09-11T22:03:43.726Z,6.20
2018-09-11T22:06:12.035Z,5.90
2018-09-11T22:08:40.297Z,6.90
2018-09-11T22:11:08.395Z,6.90
2018-09-11T22:13:36.449Z,6.37
2018-09-11T22:16:04.529Z,5.60
2018-09-11T22:18:32.565Z,6.23
2018-09-11T22:21:00.637Z,6.40
2018-09-11T22:23:28.768Z,6.90
2018-09-11T22:25:56.885Z,5.63
2018-09-11T22:28:24.925Z,5.97
2018-09-11T22:30:53.055Z,6.97
2018-09-11T22:33:21.108Z,6.30
2018-09-11T22:35:49.288Z,6.20
2018-09-11T22:38:17.356Z,6.47
2018-09-11T22:40:45.549Z,5.67
2018-09-11T22:43:13.894Z,6.67
2018-09-11T22:45:42.289Z,5.57
2018-09-11T22:48:10.360Z,6.30
2018-09-11T22:50:38.764Z,6.60
2018-09-11T22:53:06.873Z,6.60
2018-09-11T22:55:35.096Z,6.50
2018-09-11T22:58:03.225Z,6.20
2018-09-11T23:00:31.296Z,6.43
2018-09-11T23:02:59.387Z,6.30
2018-09-11T23:05:27.473Z,6.63
2018-09-11T23:07:55.584Z,6.63
2018-09-11T23:10:23.792Z,5.73
2018-09-11T23:12:51.852Z,6.23
2018-09-11T23:15:19.954Z,6.87
2018-09-11T23:17:48.016Z,7.03
2018-09-11T23:20:16.106Z,6.70
2018-09-11T23:22:44.159Z,6.27
2018-09-11T23:25:12.242Z,6.40
2018-09-11T23:27:40.401Z,7.17
2018-09-11T23:30:08.469Z,6.43
2018-09-11T23:32:36.545Z,7.70
2018-09-11T23:35:04.607Z,6.03
2018-09-11T23:37:32.676Z,6.23
2018-09-11T23:40:00.725Z,6.97
2018-09-11T23:42:28.832Z,6.43
2018-09-11T23:44:56.920Z,6.80
2018-09-11T23:47:25.072Z,6.63
2018-09-11T23:49:53.269Z,6.70
2018-09-11T23:52:21.346Z,6.53
2018-09-11T23:54:49.406Z,6.90
2018-09-11T23:57:17.496Z,7.07
2018-09-11T23:59:45.590Z,7.13
